createdAt,value
2016-05-17T00:00:57.828Z,0
2016-05-17T00:01:57.690Z,0
2016-05-17T00:02:57.896Z,0
2016-05-17T00:03:57.789Z,0
2016-05-17T00:04:57.855Z,0
2016-05-17T00:05:57.997Z,0
2016-05-17T00:06:58.375Z,0
2016-05-17T00:07:58.081Z,0
2016-05-17T00:08:57.958Z,0
2016-05-17T00:09:57.977Z,0
2016-05-17T00:10:58.074Z,0
2016-05-17T00:11:58.108Z,0
2016-05-17T00:12:58.252Z,0
2016-05-17T00:13:58.285Z,0
2016-05-17T00:14:58.335Z,0
2016-05-17T00:15:58.196Z,0
2016-05-17T00:16:58.090Z,0
2016-05-17T00:17:58.483Z,0
2016-05-17T00:18:58.501Z,0
2016-05-17T00:19:58.505Z,0
2016-05-17T00:20:58.585Z,0
2016-05-17T00:21:58.963Z,0
2016-05-17T00:22:58.622Z,0
2016-05-17T00:23:58.656Z,0
2016-05-17T00:24:58.752Z,0
2016-05-17T00:25:58.754Z,0
2016-05-17T00:26:58.476Z,0
2016-05-17T00:27:58.838Z,0
2016-05-17T00:28:58.685Z,0
2016-05-17T00:29:58.890Z,0
2016-05-17T00:30:58.487Z,0
2016-05-17T00:31:58.989Z,0
2016-05-17T00:32:58.868Z,0
2016-05-17T00:33:59.026Z,0
2016-05-17T00:34:59.075Z,0
2016-05-17T00:35:59.125Z,0
2016-05-17T00:36:58.941Z,0
2016-05-17T00:37:59.178Z,0
2016-05-17T00:38:59.197Z,0
2016-05-17T00:39:59.027Z,0
2016-05-17T00:40:59.155Z,0
2016-05-17T00:41:59.313Z,0
2016-05-17T00:42:59.410Z,0
2016-05-17T00:43:59.444Z,0
2016-05-17T00:44:59.134Z,0
2016-05-17T00:45:59.466Z,0
2016-05-17T00:46:59.389Z,0
2016-05-17T00:47:59.455Z,0
2016-05-17T00:48:59.442Z,0
2016-05-17T00:49:59.507Z,0
2016-05-17T00:50:59.509Z,0
2016-05-17T00:52:00.465Z,0
2016-05-17T00:52:59.734Z,0
2016-05-17T00:53:59.612Z,0
2016-05-17T00:54:59.848Z,0
2016-05-17T00:55:59.710Z,0
2016-05-17T00:56:59.870Z,0
2016-05-17T00:57:59.918Z,0
2016-05-17T00:58:59.921Z,0
2016-05-17T00:59:59.831Z,0
2016-05-17T01:01:00.052Z,0
2016-05-17T01:02:00.102Z,0
2016-05-17T01:03:00.089Z,0
2016-05-17T01:03:59.967Z,0
2016-05-17T01:05:00.172Z,0
2016-05-17T01:06:00.050Z,0
2016-05-17T01:07:00.255Z,0
2016-05-17T01:08:00.103Z,0
2016-05-17T01:09:00.198Z,0
2016-05-17T01:10:00.326Z,0
2016-05-17T01:11:00.220Z,0
2016-05-17T01:12:00.456Z,0
2016-05-17T01:13:00.491Z,0
2016-05-17T01:14:00.494Z,0
2016-05-17T01:15:00.371Z,0
2016-05-17T01:16:00.639Z,0
2016-05-17T01:17:00.642Z,0
2016-05-17T01:18:00.630Z,0
2016-05-17T01:19:00.694Z,0
2016-05-17T01:20:00.744Z,0
2016-05-17T01:21:00.638Z,0
2016-05-17T01:22:00.796Z,0
2016-05-17T01:23:00.830Z,0
2016-05-17T01:24:00.863Z,0
2016-05-17T01:25:00.882Z,0
2016-05-17T01:26:00.760Z,0
2016-05-17T01:27:00.810Z,0
2016-05-17T01:28:01.015Z,0
2016-05-17T01:29:01.018Z,0
2016-05-17T01:30:01.067Z,0
2016-05-17T01:31:00.976Z,0
2016-05-17T01:32:00.823Z,0
2016-05-17T01:33:00.981Z,0
2016-05-17T01:34:01.313Z,0
2016-05-17T01:35:01.128Z,0
2016-05-17T01:36:01.162Z,0
2016-05-17T01:37:01.681Z,0
2016-05-17T01:38:01.401Z,0
2016-05-17T01:39:01.248Z,0
2016-05-17T01:40:01.328Z,0
2016-05-17T01:41:01.316Z,0
2016-05-17T01:42:01.350Z,0
2016-05-17T01:43:01.431Z,0
2016-05-17T01:44:01.433Z,0
2016-05-17T01:45:01.452Z,0
2016-05-17T01:46:01.766Z,0
2016-05-17T01:47:01.550Z,0
2016-05-17T01:48:01.710Z,0
2016-05-17T01:49:01.602Z,0
2016-05-17T01:50:01.684Z,0
2016-05-17T01:51:01.671Z,0
2016-05-17T01:52:01.611Z,0
2016-05-17T01:53:01.989Z,0
2016-05-17T01:54:01.960Z,0
2016-05-17T01:55:01.994Z,0
2016-05-17T01:56:02.012Z,0
2016-05-17T01:57:02.077Z,0
2016-05-17T01:58:02.112Z,0
2016-05-17T01:59:01.990Z,0
2016-05-17T02:00:02.148Z,0
2016-05-17T02:01:02.276Z,0
2016-05-17T02:02:02.091Z,0
2016-05-17T02:03:02.265Z,0
2016-05-17T02:04:02.315Z,0
2016-05-17T02:05:02.364Z,0
2016-05-17T02:06:02.384Z,0
2016-05-17T02:07:02.183Z,0
2016-05-17T02:08:02.514Z,0
2016-05-17T02:09:02.392Z,0
2016-05-17T02:10:02.534Z,0
2016-05-17T02:11:02.553Z,0
2016-05-17T02:12:02.306Z,0
2016-05-17T02:13:02.652Z,0
2016-05-17T02:14:02.670Z,0
2016-05-17T02:15:02.705Z,0
2016-05-17T02:16:02.800Z,0
2016-05-17T02:17:02.772Z,0
2016-05-17T02:18:02.806Z,0
2016-05-17T02:19:02.886Z,0
2016-05-17T02:20:02.625Z,0
2016-05-17T02:21:02.923Z,0
2016-05-17T02:22:03.176Z,0
2016-05-17T02:23:03.022Z,0
2016-05-17T02:24:03.057Z,0
2016-05-17T02:25:02.919Z,0
2016-05-17T02:26:03.109Z,0
2016-05-17T02:27:03.127Z,0
2016-05-17T02:28:03.177Z,0
2016-05-17T02:29:03.210Z,0
2016-05-17T02:30:03.260Z,0
2016-05-17T02:31:03.357Z,0
2016-05-17T02:32:03.188Z,0
2016-05-17T02:33:03.049Z,0
2016-05-17T02:34:02.912Z,0
2016-05-17T02:35:03.492Z,0
2016-05-17T02:36:03.464Z,0
2016-05-17T02:37:03.372Z,0
2016-05-17T02:38:03.845Z,0
2016-05-17T02:39:03.425Z,0
2016-05-17T02:40:03.678Z,0
2016-05-17T02:41:03.525Z,0
2016-05-17T02:42:03.230Z,0
2016-05-17T02:43:03.717Z,0
2016-05-17T02:44:03.453Z,0
2016-05-17T02:45:03.863Z,0
2016-05-17T02:46:03.850Z,0
2016-05-17T02:47:03.712Z,0
2016-05-17T02:48:03.919Z,0
2016-05-17T02:49:03.811Z,0
2016-05-17T02:50:03.969Z,0
2016-05-17T02:51:04.019Z,0
2016-05-17T02:52:03.820Z,0
2016-05-17T02:53:03.932Z,0
2016-05-17T02:54:04.028Z,0
2016-05-17T02:55:04.155Z,0
2016-05-17T02:56:04.096Z,0
2016-05-17T02:57:04.271Z,0
2016-05-17T02:58:03.960Z,0
2016-05-17T02:59:04.182Z,0
2016-05-17T03:00:04.341Z,0
2016-05-17T03:01:04.391Z,0
2016-05-17T03:02:04.424Z,0
2016-05-17T03:03:04.459Z,0
2016-05-17T03:04:04.351Z,0
2016-05-17T03:05:04.526Z,0
2016-05-17T03:06:04.560Z,0
2016-05-17T03:07:04.625Z,0
2016-05-17T03:08:04.534Z,0
2016-05-17T03:09:04.412Z,0
2016-05-17T03:10:04.555Z,0
2016-05-17T03:11:04.605Z,0
2016-05-17T03:12:04.779Z,0
2016-05-17T03:13:04.814Z,0
2016-05-17T03:14:04.691Z,0
2016-05-17T03:15:04.959Z,0
2016-05-17T03:16:04.774Z,0
2016-05-17T03:17:04.809Z,0
2016-05-17T03:18:05.014Z,0
2016-05-17T03:19:05.048Z,0
2016-05-17T03:20:04.911Z,0
2016-05-17T03:21:04.975Z,5
2016-05-17T03:22:05.180Z,5
2016-05-17T03:23:05.199Z,5
2016-05-17T03:24:04.890Z,5
2016-05-17T03:25:05.236Z,5
2016-05-17T03:26:05.316Z,5
2016-05-17T03:27:05.351Z,5
2016-05-17T03:28:05.260Z,5
2016-05-17T03:29:05.466Z,5
2016-05-17T03:30:05.577Z,5
2016-05-17T03:31:05.174Z,10
2016-05-17T03:32:05.332Z,10
2016-05-17T03:33:05.383Z,10
2016-05-17T03:34:05.543Z,15
2016-05-17T03:35:05.357Z,15
2016-05-17T03:36:05.485Z,15
2016-05-17T03:37:06.659Z,15
2016-05-17T03:38:05.709Z,15
2016-05-17T03:39:05.601Z,20
2016-05-17T03:40:05.684Z,20
2016-05-17T03:41:05.857Z,20
2016-05-17T03:42:05.845Z,20
2016-05-17T03:43:05.784Z,20
2016-05-17T03:44:05.928Z,25
2016-05-17T03:45:05.822Z,25
2016-05-17T03:46:06.027Z,25
2016-05-17T03:47:05.873Z,25
2016-05-17T03:48:06.063Z,30
2016-05-17T03:49:05.958Z,30
2016-05-17T03:50:05.991Z,30
2016-05-17T03:51:06.024Z,30
2016-05-17T03:52:06.278Z,30
2016-05-17T03:53:06.249Z,30
2016-05-17T03:54:06.299Z,30
2016-05-17T03:55:06.301Z,35
2016-05-17T03:56:06.366Z,35
2016-05-17T03:57:06.385Z,35
2016-05-17T03:58:06.466Z,35
2016-05-17T03:59:06.499Z,35
2016-05-17T04:00:06.487Z,35
2016-05-17T04:01:06.536Z,40
2016-05-17T04:02:06.632Z,40
2016-05-17T04:03:06.635Z,40
2016-05-17T04:04:06.637Z,40
2016-05-17T04:05:06.547Z,40
2016-05-17T04:06:06.738Z,40
2016-05-17T04:07:06.974Z,45
2016-05-17T04:08:06.634Z,45
2016-05-17T04:09:06.886Z,45
2016-05-17T04:10:06.889Z,50
2016-05-17T04:11:06.906Z,55
2016-05-17T04:12:06.956Z,55
2016-05-17T04:13:06.803Z,55
2016-05-17T04:14:06.993Z,55
2016-05-17T04:15:06.886Z,60
2016-05-17T04:16:06.920Z,65
2016-05-17T04:17:07.001Z,65
2016-05-17T04:18:07.144Z,70
2016-05-17T04:19:07.194Z,70
2016-05-17T04:20:07.102Z,70
2016-05-17T04:21:07.247Z,70
2016-05-17T04:22:07.468Z,70
2016-05-17T04:23:07.330Z,75
2016-05-17T04:24:07.427Z,75
2016-05-17T04:25:07.397Z,80
2016-05-17T04:26:07.432Z,85
2016-05-17T04:27:07.480Z,90
2016-05-17T04:28:07.515Z,90
2016-05-17T04:29:07.283Z,95
2016-05-17T04:30:07.583Z,100
2016-05-17T04:31:07.491Z,100
2016-05-17T04:32:07.494Z,100
2016-05-17T04:33:07.685Z,100
2016-05-17T04:34:07.749Z,105
2016-05-17T04:35:07.784Z,105
2016-05-17T04:36:07.786Z,110
2016-05-17T04:37:07.696Z,115
2016-05-17T04:38:07.918Z,115
2016-05-17T04:39:07.623Z,115
2016-05-17T04:40:07.782Z,110
2016-05-17T04:41:08.003Z,105
2016-05-17T04:42:08.146Z,105
2016-05-17T04:43:08.055Z,95
2016-05-17T04:44:07.917Z,85
2016-05-17T04:45:08.139Z,80
2016-05-17T04:46:08.157Z,80
2016-05-17T04:47:07.739Z,80
2016-05-17T04:48:08.241Z,85
2016-05-17T04:49:08.150Z,90
2016-05-17T04:50:08.183Z,90
2016-05-17T04:51:08.327Z,95
2016-05-17T04:52:08.657Z,105
2016-05-17T04:53:08.301Z,105
2016-05-17T04:54:08.336Z,105
2016-05-17T04:55:08.322Z,95
2016-05-17T04:56:08.606Z,100
2016-05-17T04:57:08.624Z,100
2016-05-17T04:58:08.596Z,85
2016-05-17T04:59:08.630Z,75
2016-05-17T05:00:08.585Z,75
2016-05-17T05:01:08.572Z,75
2016-05-17T05:02:08.841Z,70
2016-05-17T05:03:10.703Z,65
2016-05-17T05:04:08.877Z,50
2016-05-17T05:05:08.724Z,45
2016-05-17T05:06:09.914Z,40
2016-05-17T05:07:08.979Z,40
2016-05-17T05:08:08.825Z,35
2016-05-17T05:09:08.843Z,30
2016-05-17T05:10:08.900Z,25
2016-05-17T05:11:09.163Z,25
2016-05-17T05:12:09.241Z,30
2016-05-17T05:13:09.145Z,35
2016-05-17T05:14:09.394Z,40
2016-05-17T05:15:09.161Z,45
2016-05-17T05:16:09.210Z,45
2016-05-17T05:17:09.494Z,35
2016-05-17T05:18:09.652Z,35
2016-05-17T05:19:09.718Z,40
2016-05-17T05:20:09.403Z,35
2016-05-17T05:21:09.723Z,35
2016-05-17T05:22:09.325Z,40
2016-05-17T05:23:09.864Z,40
2016-05-17T05:24:09.856Z,45
2016-05-17T05:25:09.925Z,40
2016-05-17T05:26:09.946Z,40
2016-05-17T05:27:09.982Z,45
2016-05-17T05:28:09.861Z,45
2016-05-17T05:29:10.054Z,50
2016-05-17T05:30:09.964Z,50
2016-05-17T05:31:09.998Z,55
2016-05-17T05:32:10.048Z,65
2016-05-17T05:33:10.396Z,75
2016-05-17T05:34:10.165Z,80
2016-05-17T05:35:10.152Z,85
2016-05-17T05:36:09.999Z,80
2016-05-17T05:37:11.362Z,80
2016-05-17T05:38:11.880Z,85
2016-05-17T05:39:10.962Z,85
2016-05-17T05:40:10.543Z,85
2016-05-17T05:41:12.279Z,95
2016-05-17T05:42:10.563Z,100
2016-05-17T05:43:10.707Z,95
2016-05-17T05:44:10.694Z,90
2016-05-17T05:45:10.868Z,85
2016-05-17T05:46:10.621Z,85
2016-05-17T05:47:11.155Z,90
2016-05-17T05:48:10.954Z,90
2016-05-17T05:49:10.865Z,95
2016-05-17T05:50:10.756Z,95
2016-05-17T05:51:14.728Z,100
2016-05-17T05:52:10.637Z,105
2016-05-17T05:53:10.984Z,110
2016-05-17T05:54:10.690Z,115
2016-05-17T05:55:10.709Z,120
2016-05-17T05:56:11.070Z,125
2016-05-17T05:57:11.089Z,130
2016-05-17T05:58:11.248Z,135
2016-05-17T05:59:11.234Z,140
2016-05-17T06:00:13.081Z,145
2016-05-17T06:01:11.303Z,150
2016-05-17T06:02:11.383Z,155
2016-05-17T06:03:11.714Z,155
2016-05-17T06:04:11.717Z,145
2016-05-17T06:05:11.828Z,140
2016-05-17T06:06:11.410Z,145
2016-05-17T06:07:11.912Z,140
2016-05-17T06:08:11.993Z,130
2016-05-17T06:09:11.527Z,120
2016-05-17T06:10:12.483Z,115
2016-05-17T06:11:11.923Z,120
2016-05-17T06:12:11.754Z,110
2016-05-17T06:13:11.709Z,100
2016-05-17T06:14:26.262Z,95
2016-05-17T06:16:25.501Z,115
2016-05-17T06:16:46.157Z,115
2016-05-17T06:17:40.582Z,110
2016-05-17T06:18:41.398Z,100
2016-05-17T06:19:39.743Z,100
2016-05-17T06:20:40.716Z,90
2016-05-17T06:21:40.624Z,75
2016-05-17T06:22:40.361Z,60
2016-05-17T06:23:40.317Z,60
2016-05-17T06:24:39.961Z,70
2016-05-17T06:25:39.964Z,80
2016-05-17T06:26:39.888Z,105
2016-05-17T06:27:40.266Z,135
2016-05-17T06:28:42.221Z,160
2016-05-17T06:29:44.334Z,165
2016-05-17T06:30:45.680Z,165
2016-05-17T06:31:44.776Z,165
2016-05-17T06:32:45.701Z,155
2016-05-17T06:33:48.657Z,155
2016-05-17T06:34:46.597Z,160
2016-05-17T06:35:46.647Z,170
2016-05-17T06:36:50.150Z,180
2016-05-17T06:37:49.277Z,205
2016-05-17T06:38:47.139Z,220
2016-05-17T06:39:46.985Z,240
2016-05-17T06:40:46.754Z,260
2016-05-17T06:41:49.913Z,275
2016-05-17T06:42:46.697Z,285
2016-05-17T06:43:45.230Z,260
2016-05-17T06:44:45.499Z,250
2016-05-17T06:45:44.377Z,265
2016-05-17T06:46:45.020Z,265
2016-05-17T06:47:45.288Z,240
2016-05-17T06:48:43.337Z,240
2016-05-17T06:49:43.606Z,245
2016-05-17T06:50:42.687Z,250
2016-05-17T06:51:44.018Z,250
2016-05-17T06:52:43.161Z,230
2016-05-17T06:53:43.101Z,225
2016-05-17T06:54:43.042Z,205
2016-05-17T06:55:41.559Z,195
2016-05-17T06:56:42.547Z,190
2016-05-17T06:57:41.174Z,180
2016-05-17T06:58:42.053Z,175
2016-05-17T06:59:41.742Z,170
2016-05-17T07:00:44.292Z,185
2016-05-17T07:01:42.919Z,175
2016-05-17T07:02:42.594Z,185
2016-05-17T07:03:41.409Z,180
2016-05-17T07:04:41.880Z,185
2016-05-17T07:05:42.961Z,205
2016-05-17T07:06:43.792Z,210
2016-05-17T07:07:44.123Z,210
2016-05-17T07:08:41.391Z,225
2016-05-17T07:09:41.566Z,245
2016-05-17T07:10:43.115Z,270
2016-05-17T07:11:42.008Z,325
2016-05-17T07:12:41.918Z,345
2016-05-17T07:13:42.686Z,340
2016-05-17T07:14:47.845Z,360
2016-05-17T07:15:42.848Z,405
2016-05-17T07:16:43.319Z,360
2016-05-17T07:17:42.463Z,300
2016-05-17T07:18:44.934Z,330
2016-05-17T07:19:43.687Z,355
2016-05-17T07:20:42.064Z,325
2016-05-17T07:21:41.801Z,280
2016-05-17T07:22:42.523Z,240
2016-05-17T07:23:42.165Z,260
2016-05-17T07:24:42.310Z,225
2016-05-17T07:25:42.250Z,160
2016-05-17T07:26:42.299Z,105
2016-05-17T07:27:42.443Z,80
2016-05-17T07:28:43.445Z,100
2016-05-17T07:29:43.386Z,115
2016-05-17T07:30:44.075Z,100
2016-05-17T07:31:43.281Z,80
2016-05-17T07:32:42.753Z,60
2016-05-17T07:33:44.006Z,50
2016-05-17T07:34:45.555Z,45
2016-05-17T07:35:45.667Z,40
2016-05-17T07:36:44.967Z,45
2016-05-17T07:37:45.313Z,65
2016-05-17T07:38:46.691Z,80
2016-05-17T07:39:44.913Z,95
2016-05-17T07:40:46.805Z,115
2016-05-17T07:41:49.136Z,135
2016-05-17T07:42:46.327Z,165
2016-05-17T07:43:46.188Z,190
2016-05-17T07:44:46.519Z,200
2016-05-17T07:45:44.646Z,205
2016-05-17T07:46:44.932Z,205
2016-05-17T07:47:48.856Z,200
2016-05-17T07:48:45.327Z,190
2016-05-17T07:49:46.143Z,180
2016-05-17T07:50:48.582Z,175
2016-05-17T07:51:46.726Z,180
2016-05-17T07:52:44.932Z,185
2016-05-17T07:53:47.200Z,190
2016-05-17T07:54:45.468Z,195
2016-05-17T07:55:46.173Z,195
2016-05-17T07:56:46.427Z,195
2016-05-17T07:57:46.117Z,190
2016-05-17T07:58:45.714Z,195
2016-05-17T07:59:45.888Z,195
2016-05-17T08:00:47.687Z,200
2016-05-17T08:01:46.472Z,200
2016-05-17T08:02:47.787Z,210
2016-05-17T08:03:45.930Z,215
2016-05-17T08:04:46.620Z,205
2016-05-17T08:05:46.028Z,245
2016-05-17T08:06:46.736Z,270
2016-05-17T08:07:47.706Z,300
2016-05-17T08:08:48.365Z,325
2016-05-17T08:09:46.962Z,350
2016-05-17T08:10:47.511Z,375
2016-05-17T08:11:51.624Z,385
2016-05-17T08:12:47.673Z,390
2016-05-17T08:13:49.222Z,400
2016-05-17T08:14:48.288Z,420
2016-05-17T08:15:48.540Z,440
2016-05-17T08:16:46.668Z,465
2016-05-17T08:17:48.015Z,480
2016-05-17T08:18:47.517Z,495
2016-05-17T08:19:47.098Z,505
2016-05-17T08:20:47.991Z,525
2016-05-17T08:21:50.040Z,545
2016-05-17T08:22:48.169Z,550
2016-05-17T08:23:46.531Z,540
2016-05-17T08:24:49.346Z,525
2016-05-17T08:25:47.067Z,510
2016-05-17T08:26:48.335Z,430
2016-05-17T08:27:46.167Z,320
2016-05-17T08:28:46.137Z,265
2016-05-17T08:29:47.343Z,225
2016-05-17T08:30:47.081Z,220
2016-05-17T08:31:50.615Z,210
2016-05-17T08:32:47.023Z,195
2016-05-17T08:33:45.229Z,180
2016-05-17T08:34:46.904Z,185
2016-05-17T08:35:45.829Z,200
2016-05-17T08:36:46.409Z,215
2016-05-17T08:37:48.740Z,240
2016-05-17T08:38:50.884Z,250
2016-05-17T08:39:48.183Z,255
2016-05-17T08:40:45.592Z,265
2016-05-17T08:41:46.970Z,265
2016-05-17T08:42:46.066Z,245
2016-05-17T08:43:45.335Z,225
2016-05-17T08:44:45.274Z,210
2016-05-17T08:45:48.668Z,215
2016-05-17T08:46:46.124Z,235
2016-05-17T08:47:47.924Z,270
2016-05-17T08:48:49.660Z,315
2016-05-17T08:49:53.647Z,355
2016-05-17T08:50:47.759Z,380
2016-05-17T08:51:49.527Z,405
2016-05-17T08:52:48.702Z,435
2016-05-17T08:53:48.315Z,490
2016-05-17T08:54:46.130Z,530
2016-05-17T08:55:48.726Z,555
2016-05-17T08:56:50.260Z,575
2016-05-17T08:57:50.560Z,610
2016-05-17T08:58:48.750Z,645
2016-05-17T08:59:48.674Z,660
2016-05-17T09:00:48.115Z,685
2016-05-17T09:01:49.086Z,690
2016-05-17T09:02:46.011Z,670
2016-05-17T09:03:48.700Z,640
2016-05-17T09:04:45.969Z,630
2016-05-17T09:05:48.800Z,640
2016-05-17T09:06:49.255Z,650
2016-05-17T09:07:48.774Z,650
2016-05-17T09:08:48.558Z,650
2016-05-17T09:09:47.483Z,635
2016-05-17T09:10:49.283Z,640
2016-05-17T09:11:48.613Z,665
2016-05-17T09:12:48.944Z,675
2016-05-17T09:13:46.696Z,685
2016-05-17T09:14:46.575Z,695
2016-05-17T09:15:46.796Z,710
2016-05-17T09:16:52.299Z,710
2016-05-17T09:17:47.660Z,720
2016-05-17T09:18:51.241Z,745
2016-05-17T09:19:46.477Z,790
2016-05-17T09:20:46.496Z,795
2016-05-17T09:21:47.890Z,825
2016-05-17T09:22:46.971Z,825
2016-05-17T09:23:46.614Z,845
2016-05-17T09:24:46.820Z,860
2016-05-17T09:25:46.698Z,880
2016-05-17T09:26:46.966Z,860
2016-05-17T09:27:46.937Z,825
2016-05-17T09:28:48.018Z,755
2016-05-17T09:29:47.115Z,645
2016-05-17T09:30:47.070Z,590
2016-05-17T09:31:49.135Z,560
2016-05-17T09:32:47.701Z,520
2016-05-17T09:33:47.110Z,550
2016-05-17T09:34:53.893Z,500
2016-05-17T09:35:47.100Z,445
2016-05-17T09:36:47.665Z,445
2016-05-17T09:37:49.308Z,495
2016-05-17T09:38:50.373Z,500
2016-05-17T09:39:58.079Z,475
2016-05-17T09:40:56.816Z,455
2016-05-17T09:41:57.522Z,465
2016-05-17T09:43:02.400Z,450
2016-05-17T09:44:00.152Z,420
2016-05-17T09:44:53.936Z,380
2016-05-17T09:45:51.969Z,340
2016-05-17T09:46:54.769Z,320
2016-05-17T09:47:51.678Z,350
2016-05-17T09:48:51.477Z,390
2016-05-17T09:49:49.980Z,410
2016-05-17T09:50:48.374Z,455
2016-05-17T09:51:48.221Z,505
2016-05-17T09:52:47.692Z,595
2016-05-17T09:53:49.352Z,680
2016-05-17T09:54:48.290Z,715
2016-05-17T09:55:48.138Z,705
2016-05-17T09:56:49.313Z,680
2016-05-17T09:57:48.174Z,660
2016-05-17T09:58:51.037Z,600
2016-05-17T09:59:48.117Z,540
2016-05-17T10:00:48.448Z,525
2016-05-17T10:01:48.232Z,495
2016-05-17T10:02:48.609Z,475
2016-05-17T10:03:48.753Z,470
2016-05-17T10:04:51.740Z,455
2016-05-17T10:05:48.711Z,440
2016-05-17T10:06:50.261Z,440
2016-05-17T10:07:49.779Z,435
2016-05-17T10:08:49.657Z,415
2016-05-17T10:09:50.550Z,410
2016-05-17T10:10:49.912Z,390
2016-05-17T10:11:48.961Z,385
2016-05-17T10:12:48.918Z,420
2016-05-17T10:13:49.295Z,435
2016-05-17T10:14:49.736Z,470
2016-05-17T10:15:50.536Z,560
2016-05-17T10:16:49.397Z,675
2016-05-17T10:17:50.447Z,720
2016-05-17T10:18:49.200Z,685
2016-05-17T10:19:49.514Z,585
2016-05-17T10:20:49.314Z,525
2016-05-17T10:21:49.286Z,500
2016-05-17T10:22:49.585Z,520
2016-05-17T10:23:49.088Z,555
2016-05-17T10:24:50.434Z,570
2016-05-17T10:25:49.375Z,500
2016-05-17T10:26:49.533Z,450
2016-05-17T10:27:49.270Z,540
2016-05-17T10:28:49.446Z,645
2016-05-17T10:29:50.776Z,665
2016-05-17T10:30:49.512Z,585
2016-05-17T10:31:49.501Z,475
2016-05-17T10:32:49.424Z,345
2016-05-17T10:33:49.662Z,265
2016-05-17T10:34:49.680Z,255
2016-05-17T10:35:50.042Z,290
2016-05-17T10:36:49.684Z,365
2016-05-17T10:37:49.845Z,480
2016-05-17T10:38:49.894Z,610
2016-05-17T10:39:50.756Z,685
2016-05-17T10:40:49.978Z,750
2016-05-17T10:41:49.856Z,785
2016-05-17T10:42:49.780Z,815
2016-05-17T10:43:49.876Z,805
2016-05-17T10:44:50.254Z,1005
2016-05-17T10:45:50.241Z,840
2016-05-17T10:46:50.369Z,910
2016-05-17T10:47:49.887Z,870
2016-05-17T10:48:50.264Z,1220
2016-05-17T10:49:50.549Z,1285
2016-05-17T10:50:51.317Z,1560
2016-05-17T10:51:51.148Z,1175
2016-05-17T10:52:50.588Z,900
2016-05-17T10:53:51.544Z,960
2016-05-17T10:54:50.437Z,1190
2016-05-17T10:55:50.377Z,1300
2016-05-17T10:56:50.489Z,2515
2016-05-17T10:57:50.679Z,2365
2016-05-17T10:58:50.619Z,1360
2016-05-17T10:59:50.497Z,2025
2016-05-17T11:00:50.954Z,3425
2016-05-17T11:01:50.706Z,3160
2016-05-17T11:02:50.974Z,3480
2016-05-17T11:03:50.992Z,3370
2016-05-17T11:04:51.042Z,3540
2016-05-17T11:05:51.013Z,3650
2016-05-17T11:06:51.484Z,920
2016-05-17T11:07:51.081Z,895
2016-05-17T11:08:51.568Z,1420
2016-05-17T11:09:50.931Z,590
2016-05-17T11:10:51.198Z,590
2016-05-17T11:11:51.123Z,535
2016-05-17T11:12:51.453Z,435
2016-05-17T11:13:52.722Z,455
2016-05-17T11:14:51.287Z,470
2016-05-17T11:15:52.008Z,420
2016-05-17T11:16:51.339Z,370
2016-05-17T11:17:51.374Z,345
2016-05-17T11:18:52.783Z,345
2016-05-17T11:19:51.645Z,325
2016-05-17T11:20:51.695Z,315
2016-05-17T11:21:54.305Z,355
2016-05-17T11:22:51.590Z,400
2016-05-17T11:23:52.266Z,420
2016-05-17T11:24:52.283Z,400
2016-05-17T11:25:51.802Z,390
2016-05-17T11:26:52.039Z,400
2016-05-17T11:27:52.151Z,410
2016-05-17T11:28:52.013Z,430
2016-05-17T11:29:52.062Z,425
2016-05-17T11:30:52.080Z,390
2016-05-17T11:31:52.115Z,405
2016-05-17T11:32:51.993Z,425
2016-05-17T11:33:52.198Z,445
2016-05-17T11:34:51.920Z,475
2016-05-17T11:35:52.157Z,480
2016-05-17T11:36:52.925Z,490
2016-05-17T11:37:52.286Z,495
2016-05-17T11:38:52.540Z,480
2016-05-17T11:39:52.511Z,465
2016-05-17T11:40:54.764Z,450
2016-05-17T11:41:52.376Z,430
2016-05-17T11:42:52.691Z,405
2016-05-17T11:43:52.678Z,405
2016-05-17T11:44:52.711Z,390
2016-05-17T11:45:52.777Z,410
2016-05-17T11:46:52.967Z,475
2016-05-17T11:47:52.830Z,560
2016-05-17T11:48:52.863Z,655
2016-05-17T11:49:52.881Z,710
2016-05-17T11:50:53.463Z,795
2016-05-17T11:51:53.340Z,750
2016-05-17T11:52:53.030Z,750
2016-05-17T11:53:52.861Z,740
2016-05-17T11:54:52.910Z,650
2016-05-17T11:55:53.132Z,520
2016-05-17T11:56:53.166Z,470
2016-05-17T11:57:55.121Z,435
2016-05-17T11:58:52.906Z,400
2016-05-17T11:59:53.394Z,365
2016-05-17T12:00:53.395Z,350
2016-05-17T12:01:53.038Z,340
2016-05-17T12:02:53.385Z,340
2016-05-17T12:03:53.326Z,330
2016-05-17T12:04:53.468Z,330
2016-05-17T12:05:53.629Z,310
2016-05-17T12:06:52.724Z,280
2016-05-17T12:07:53.711Z,295
2016-05-17T12:08:53.698Z,335
2016-05-17T12:09:53.529Z,365
2016-05-17T12:10:53.828Z,400
2016-05-17T12:11:54.269Z,445
2016-05-17T12:12:53.990Z,475
2016-05-17T12:13:53.931Z,470
2016-05-17T12:14:53.683Z,435
2016-05-17T12:15:53.920Z,380
2016-05-17T12:16:53.986Z,350
2016-05-17T12:17:54.081Z,325
2016-05-17T12:18:53.928Z,305
2016-05-17T12:19:54.087Z,320
2016-05-17T12:20:53.856Z,315
2016-05-17T12:21:54.952Z,290
2016-05-17T12:22:55.377Z,270
2016-05-17T12:23:54.269Z,275
2016-05-17T12:24:54.147Z,290
2016-05-17T12:25:54.791Z,295
2016-05-17T12:26:54.216Z,275
2016-05-17T12:27:54.280Z,245
2016-05-17T12:28:54.268Z,225
2016-05-17T12:29:54.536Z,210
2016-05-17T12:30:54.539Z,205
2016-05-17T12:31:54.635Z,205
2016-05-17T12:32:54.544Z,200
2016-05-17T12:33:54.360Z,190
2016-05-17T12:34:54.799Z,175
2016-05-17T12:35:54.755Z,180
2016-05-17T12:36:55.070Z,195
2016-05-17T12:37:54.651Z,190
2016-05-17T12:38:54.920Z,190
2016-05-17T12:39:55.063Z,185
2016-05-17T12:40:55.018Z,185
2016-05-17T12:41:54.975Z,190
2016-05-17T12:42:55.290Z,180
2016-05-17T12:43:54.965Z,160
2016-05-17T12:44:55.029Z,175
2016-05-17T12:45:55.220Z,185
2016-05-17T12:46:55.207Z,195
2016-05-17T12:47:55.287Z,195
2016-05-17T12:48:56.852Z,185
2016-05-17T12:49:55.152Z,185
2016-05-17T12:50:58.139Z,190
2016-05-17T12:51:55.939Z,200
2016-05-17T12:52:55.379Z,215
2016-05-17T12:53:55.178Z,220
2016-05-17T12:54:55.416Z,225
2016-05-17T12:55:55.450Z,210
2016-05-17T12:56:56.109Z,215
2016-05-17T12:57:55.564Z,220
2016-05-17T12:58:55.645Z,210
2016-05-17T12:59:55.226Z,210
2016-05-17T13:00:55.776Z,185
2016-05-17T13:01:55.841Z,170
2016-05-17T13:02:55.703Z,160
2016-05-17T13:03:55.893Z,160
2016-05-17T13:04:55.974Z,150
2016-05-17T13:05:56.008Z,140
2016-05-17T13:06:56.057Z,120
2016-05-17T13:07:56.013Z,105
2016-05-17T13:08:56.031Z,115
2016-05-17T13:09:56.081Z,120
2016-05-17T13:10:55.865Z,120
2016-05-17T13:11:56.165Z,115
2016-05-17T13:12:56.183Z,120
2016-05-17T13:13:56.217Z,140
2016-05-17T13:14:56.345Z,165
2016-05-17T13:15:56.363Z,185
2016-05-17T13:16:56.335Z,200
2016-05-17T13:17:56.462Z,205
2016-05-17T13:18:56.277Z,215
2016-05-17T13:19:56.545Z,230
2016-05-17T13:20:56.548Z,245
2016-05-17T13:21:56.567Z,260
2016-05-17T13:22:56.600Z,285
2016-05-17T13:23:56.603Z,320
2016-05-17T13:24:56.636Z,370
2016-05-17T13:25:56.719Z,410
2016-05-17T13:26:56.627Z,405
2016-05-17T13:27:56.786Z,370
2016-05-17T13:28:56.897Z,335
2016-05-17T13:29:56.744Z,315
2016-05-17T13:30:56.762Z,310
2016-05-17T13:31:56.937Z,320
2016-05-17T13:32:57.955Z,330
2016-05-17T13:33:57.068Z,335
2016-05-17T13:34:57.054Z,325
2016-05-17T13:35:57.104Z,305
2016-05-17T13:36:57.716Z,285
2016-05-17T13:37:57.172Z,265
2016-05-17T13:38:57.221Z,250
2016-05-17T13:39:57.302Z,225
2016-05-17T13:40:57.321Z,205
2016-05-17T13:41:57.324Z,195
2016-05-17T13:42:57.123Z,195
2016-05-17T13:43:57.470Z,190
2016-05-17T13:44:57.551Z,200
2016-05-17T13:45:57.475Z,195
2016-05-17T13:46:57.571Z,185
2016-05-17T13:47:57.418Z,175
2016-05-17T13:48:57.452Z,170
2016-05-17T13:49:57.486Z,170
2016-05-17T13:50:57.723Z,165
2016-05-17T13:51:58.084Z,165
2016-05-17T13:52:57.775Z,170
2016-05-17T13:53:57.825Z,165
2016-05-17T13:54:57.906Z,160
2016-05-17T13:55:57.799Z,160
2016-05-17T13:56:57.630Z,160
2016-05-17T13:57:57.991Z,160
2016-05-17T13:58:57.870Z,145
2016-05-17T13:59:58.060Z,125
2016-05-17T14:00:58.124Z,110
2016-05-17T14:01:58.174Z,110
2016-05-17T14:02:58.021Z,105
2016-05-17T14:03:58.211Z,105
2016-05-17T14:04:58.104Z,95
2016-05-17T14:05:58.185Z,85